createdAt,value
2022-10-04T00:02:34.365Z,4.50
2022-10-04T00:05:12.915Z,2.90
2022-10-04T00:07:49.328Z,4.70
2022-10-04T00:13:09.713Z,5.30
2022-10-04T00:15:53.010Z,8.30
2022-10-04T00:18:41.570Z,7.40
2022-10-04T00:21:24.532Z,6.60
2022-10-04T00:24:11.835Z,4.20
2022-10-04T00:26:46.633Z,5.80
2022-10-04T00:29:39.105Z,8.70
2022-10-04T00:32:27.887Z,7.70
2022-10-04T00:34:59.327Z,2.40
2022-10-04T00:38:06.789Z,3.40
2022-10-04T00:40:57.527Z,6.90
2022-10-04T00:43:29.510Z,3.20
2022-10-04T00:46:22.714Z,4.30
2022-10-04T00:49:09.866Z,6.40
2022-10-04T00:51:50.817Z,8.10
2022-10-04T00:54:23.848Z,6.10
2022-10-04T00:57:11.668Z,9.10
2022-10-04T00:59:51.215Z,7.70
2022-10-04T01:02:51.667Z,6.80
2022-10-04T01:05:42.941Z,7.90
2022-10-04T01:08:33.450Z,11.70
2022-10-04T01:11:24.748Z,9.70
2022-10-04T01:14:46.084Z,12.60
2022-10-04T01:17:28.608Z,6.30
2022-10-04T01:19:57.740Z,14.80
2022-10-04T01:22:50.811Z,4.60
2022-10-04T01:25:52.913Z,10.40
2022-10-04T01:28:22.761Z,10.20
2022-10-04T01:30:53.244Z,7.50
2022-10-04T01:33:36.469Z,12.30
2022-10-04T01:36:20.665Z,7.60
2022-10-04T01:38:51.612Z,8.70
2022-10-04T01:42:01.650Z,15.90
2022-10-04T01:45:05.521Z,7.00
2022-10-04T01:47:58.379Z,6.10
2022-10-04T01:50:40.076Z,8.40
2022-10-04T01:53:36.018Z,7.50
2022-10-04T01:56:24.190Z,12.00
2022-10-04T01:59:05.576Z,15.40
2022-10-04T02:01:59.837Z,9.00
2022-10-04T02:04:44.208Z,5.80
2022-10-04T02:07:32.298Z,11.00
2022-10-04T02:10:09.229Z,6.90
2022-10-04T02:12:43.613Z,9.40
2022-10-04T02:15:27.015Z,8.30
2022-10-04T02:17:58.388Z,7.70
2022-10-04T02:20:28.418Z,11.10
2022-10-04T02:23:03.285Z,7.30
2022-10-04T02:25:32.838Z,7.30
2022-10-04T02:28:02.078Z,10.30
2022-10-04T02:30:45.050Z,7.70
2022-10-04T02:33:27.934Z,7.40
2022-10-04T02:35:59.025Z,9.20
2022-10-04T02:39:03.412Z,13.90
2022-10-04T02:41:53.368Z,9.50
2022-10-04T02:45:00.489Z,7.70
2022-10-04T02:47:45.526Z,4.70
2022-10-04T02:50:31.285Z,6.80
2022-10-04T02:53:22.584Z,7.00
2022-10-04T02:55:52.297Z,5.90
2022-10-04T02:58:24.705Z,7.00
2022-10-04T03:01:00.180Z,7.30
2022-10-04T03:03:39.715Z,7.10
2022-10-04T03:06:28.614Z,9.70
2022-10-04T03:09:01.172Z,4.50
2022-10-04T03:11:35.762Z,3.60
2022-10-04T03:14:09.333Z,3.00
2022-10-04T03:16:42.656Z,2.80
2022-10-04T03:19:28.434Z,7.30
2022-10-04T03:22:03.262Z,4.90
2022-10-04T03:27:36.984Z,3.70
2022-10-04T03:30:06.985Z,4.40
2022-10-04T03:32:36.123Z,6.50
2022-10-04T03:35:08.874Z,5.80
2022-10-04T03:37:38.825Z,4.20
2022-10-04T03:40:10.772Z,3.00
2022-10-04T03:42:39.829Z,8.80
2022-10-04T03:45:15.875Z,3.00
2022-10-04T03:47:48.788Z,4.90
2022-10-04T03:50:28.506Z,5.10
2022-10-04T03:53:00.761Z,6.70
2022-10-04T03:55:36.811Z,7.20
2022-10-04T03:58:09.635Z,10.70
2022-10-04T04:00:44.604Z,12.00
2022-10-04T04:03:33.135Z,11.50
2022-10-04T04:06:19.311Z,5.60
2022-10-04T04:08:53.551Z,8.20
2022-10-04T04:11:37.256Z,7.90
2022-10-04T04:14:29.153Z,7.00
2022-10-04T04:17:37.137Z,7.60
2022-10-04T04:20:15.942Z,7.00
2022-10-04T04:22:48.751Z,14.70
2022-10-04T04:25:17.987Z,6.50
2022-10-04T04:27:49.670Z,8.60
2022-10-04T04:30:34.629Z,8.80
2022-10-04T04:33:43.330Z,7.10
2022-10-04T04:36:15.055Z,11.90
2022-10-04T04:39:03.119Z,7.30
2022-10-04T04:41:50.234Z,15.90
2022-10-04T04:44:20.768Z,13.30
2022-10-04T04:46:50.001Z,8.70
2022-10-04T04:49:19.383Z,11.80
2022-10-04T04:51:51.640Z,7.30
2022-10-04T04:54:24.125Z,7.50
2022-10-04T04:56:55.061Z,11.30
2022-10-04T04:59:26.818Z,8.00
2022-10-04T05:02:35.348Z,7.40
2022-10-04T05:05:26.765Z,7.30
2022-10-04T05:08:28.409Z,10.70
2022-10-04T05:11:10.223Z,5.60
2022-10-04T05:14:06.058Z,5.30
2022-10-04T05:16:56.109Z,9.30
2022-10-04T05:19:40.466Z,10.90
2022-10-04T05:22:15.243Z,11.50
2022-10-04T05:24:48.321Z,7.40
2022-10-04T05:27:32.508Z,11.90
2022-10-04T05:30:11.045Z,6.70
2022-10-04T05:33:01.860Z,11.00
2022-10-04T05:35:48.589Z,9.50
2022-10-04T05:39:03.025Z,4.90
2022-10-04T05:41:50.419Z,5.80
2022-10-04T05:44:56.079Z,10.30
2022-10-04T05:47:30.855Z,8.00
2022-10-04T05:50:28.512Z,7.50
2022-10-04T05:53:22.932Z,7.30
2022-10-04T05:56:11.918Z,10.00
2022-10-04T05:59:16.028Z,6.40
2022-10-04T06:02:40.657Z,6.50
2022-10-04T06:05:49.131Z,2.40
2022-10-04T06:08:26.695Z,4.00
2022-10-04T06:11:18.763Z,6.70
2022-10-04T06:14:16.247Z,5.70
2022-10-04T06:17:18.638Z,9.50
2022-10-04T06:20:06.149Z,5.10
2022-10-04T06:22:55.142Z,5.70
2022-10-04T06:25:47.505Z,9.90
2022-10-04T06:28:47.526Z,9.30
2022-10-04T06:31:24.548Z,10.00
2022-10-04T06:34:05.488Z,7.20
2022-10-04T06:37:10.065Z,11.20
2022-10-04T06:40:30.145Z,6.50
2022-10-04T06:43:37.929Z,9.70
2022-10-04T06:49:13.957Z,11.00
2022-10-04T06:51:52.103Z,3.90
2022-10-04T06:54:46.107Z,7.20
2022-10-04T06:57:42.507Z,4.70
2022-10-04T07:00:35.366Z,4.80
2022-10-04T07:03:24.747Z,6.10
2022-10-04T07:06:05.267Z,11.60
2022-10-04T07:08:56.692Z,6.50
2022-10-04T07:12:03.252Z,4.60
2022-10-04T07:14:50.316Z,10.50
2022-10-04T07:17:27.904Z,5.10
2022-10-04T07:20:40.103Z,8.40
2022-10-04T07:23:29.033Z,7.60
2022-10-04T07:26:07.032Z,12.20
2022-10-04T07:29:02.304Z,5.90
2022-10-04T07:31:46.965Z,4.60
2022-10-04T07:34:32.168Z,5.80
2022-10-04T07:37:16.582Z,8.50
2022-10-04T07:40:10.102Z,7.00
2022-10-04T07:42:49.263Z,6.00
2022-10-04T07:45:29.139Z,3.80
2022-10-04T07:48:25.072Z,5.20
2022-10-04T07:51:25.056Z,9.30
2022-10-04T07:54:17.461Z,5.30
2022-10-04T07:56:55.815Z,3.60
2022-10-04T07:59:48.637Z,6.00
2022-10-04T08:02:59.054Z,5.90
2022-10-04T08:05:50.255Z,5.10
2022-10-04T08:08:40.825Z,3.80
2022-10-04T08:12:05.646Z,5.70
2022-10-04T08:14:54.585Z,7.10
2022-10-04T08:17:33.455Z,2.80
2022-10-04T08:20:28.747Z,6.80
2022-10-04T08:23:07.133Z,3.60
2022-10-04T08:26:26.371Z,6.20
2022-10-04T08:29:33.568Z,3.70
2022-10-04T08:32:50.369Z,5.80
2022-10-04T08:35:39.989Z,3.30
2022-10-04T08:38:45.308Z,4.80
2022-10-04T08:42:05.322Z,4.50
2022-10-04T08:45:38.510Z,4.20
2022-10-04T08:48:46.499Z,5.00
2022-10-04T08:51:24.395Z,2.60
2022-10-04T08:54:32.629Z,2.30
2022-10-04T08:57:39.304Z,12.00
2022-10-04T09:00:21.262Z,5.20
2022-10-04T09:03:28.637Z,5.00
2022-10-04T09:06:18.598Z,1.40
2022-10-04T09:09:06.766Z,1.60
2022-10-04T09:12:08.092Z,6.70
2022-10-04T09:15:20.909Z,2.60
2022-10-04T09:18:12.646Z,10.20
2022-10-04T09:21:19.101Z,1.70
2022-10-04T09:24:19.266Z,1.90
2022-10-04T09:27:43.263Z,6.40
2022-10-04T09:30:20.979Z,2.50
2022-10-04T09:33:16.079Z,3.90
2022-10-04T09:36:25.312Z,2.10
2022-10-04T09:39:35.573Z,4.80
2022-10-04T09:42:26.838Z,2.40
2022-10-04T09:45:31.126Z,3.20
2022-10-04T09:48:06.148Z,1.00
2022-10-04T09:51:03.627Z,2.10
2022-10-04T09:54:28.386Z,4.50
2022-10-04T09:57:22.176Z,1.30
2022-10-04T10:00:27.000Z,4.70
2022-10-04T10:03:05.973Z,16.10
2022-10-04T10:06:19.774Z,1.80
2022-10-04T10:09:02.924Z,7.40
2022-10-04T10:12:36.445Z,3.90
2022-10-04T10:15:14.934Z,6.30
2022-10-04T10:18:10.847Z,6.10
2022-10-04T10:21:10.719Z,3.90
2022-10-04T10:23:47.437Z,5.70
2022-10-04T10:26:46.368Z,1.60
2022-10-04T10:29:44.394Z,4.10
2022-10-04T10:32:40.479Z,2.00
2022-10-04T10:35:44.229Z,3.00
2022-10-04T10:38:57.933Z,11.30
2022-10-04T10:42:07.657Z,6.00
2022-10-04T10:45:09.463Z,4.40
2022-10-04T10:47:59.897Z,4.50
2022-10-04T10:51:00.014Z,3.90
2022-10-04T10:53:50.577Z,2.30
2022-10-04T10:56:36.611Z,3.50
2022-10-04T10:59:55.715Z,3.20
2022-10-04T11:03:13.126Z,5.00
2022-10-04T11:06:07.754Z,2.60
2022-10-04T11:09:04.935Z,1.40
2022-10-04T11:11:34.185Z,11.90
2022-10-04T11:14:43.815Z,3.10
2022-10-04T11:17:50.438Z,1.60
2022-10-04T11:20:34.279Z,1.00
2022-10-04T11:23:03.117Z,4.60
2022-10-04T11:26:24.053Z,2.00
2022-10-04T11:29:32.570Z,2.90
2022-10-04T11:32:53.075Z,4.20
2022-10-04T11:35:30.852Z,1.20
2022-10-04T11:38:27.657Z,4.80
2022-10-04T11:41:07.610Z,2.10
2022-10-04T11:44:06.331Z,1.90
2022-10-04T11:46:57.990Z,4.40
2022-10-04T11:49:53.029Z,6.40
2022-10-04T11:52:54.432Z,2.90
2022-10-04T11:55:54.335Z,1.40
2022-10-04T11:58:59.238Z,18.30
2022-10-04T12:01:50.028Z,4.40
2022-10-04T12:05:02.192Z,1.60
2022-10-04T12:08:02.049Z,0.90
2022-10-04T12:11:03.686Z,1.40
2022-10-04T12:13:57.826Z,3.10
2022-10-04T12:17:07.300Z,3.70
2022-10-04T12:19:51.609Z,5.10
2022-10-04T12:23:11.712Z,1.90
2022-10-04T12:25:48.358Z,1.50
2022-10-04T12:28:45.113Z,1.10
2022-10-04T12:31:34.836Z,3.10
2022-10-04T12:34:15.944Z,1.00
2022-10-04T12:37:20.980Z,4.30
2022-10-04T12:40:19.959Z,1.40
2022-10-04T12:43:06.424Z,1.10
2022-10-04T12:45:57.315Z,1.70
2022-10-04T12:48:49.771Z,1.80
2022-10-04T12:51:34.895Z,4.60
2022-10-04T12:54:34.325Z,3.00
2022-10-04T12:57:23.826Z,3.40
2022-10-04T13:00:15.295Z,0.40
2022-10-04T13:03:02.692Z,1.50
2022-10-04T13:05:41.787Z,1.30
2022-10-04T13:08:48.430Z,2.80
2022-10-04T13:11:51.745Z,1.10
2022-10-04T13:14:31.728Z,3.00
2022-10-04T13:17:28.359Z,1.70
2022-10-04T13:20:26.544Z,1.70
2022-10-04T13:22:58.405Z,2.90
2022-10-04T13:25:54.312Z,4.30
2022-10-04T13:28:49.673Z,3.90
2022-10-04T13:31:25.240Z,3.00
2022-10-04T13:34:25.006Z,1.60
2022-10-04T13:37:36.061Z,1.40
2022-10-04T13:40:43.713Z,1.70
2022-10-04T13:43:37.392Z,3.30
2022-10-04T13:46:26.687Z,2.50
2022-10-04T13:49:00.975Z,6.10
2022-10-04T13:51:36.165Z,1.70
2022-10-04T13:54:31.765Z,5.50
2022-10-04T13:57:24.790Z,5.70
2022-10-04T14:00:09.501Z,6.50
2022-10-04T14:03:17.064Z,3.30
2022-10-04T14:06:09.697Z,10.60
2022-10-04T14:09:33.987Z,3.30
2022-10-04T14:12:19.921Z,3.60
2022-10-04T14:15:14.709Z,7.00
2022-10-04T14:17:51.154Z,3.20
2022-10-04T14:21:00.029Z,1.10
2022-10-04T14:23:52.609Z,1.50
2022-10-04T14:27:00.237Z,1.30
2022-10-04T14:30:15.120Z,58.30
2022-10-04T14:32:48.380Z,2.20
2022-10-04T14:35:35.798Z,6.00
2022-10-04T14:38:30.462Z,3.50
2022-10-04T14:41:02.119Z,5.10
2022-10-04T14:44:10.711Z,3.80
2022-10-04T14:46:56.232Z,2.30
2022-10-04T14:49:38.852Z,2.60
2022-10-04T14:52:47.740Z,3.30
2022-10-04T14:55:39.874Z,3.20
2022-10-04T14:58:34.338Z,5.80
2022-10-04T15:01:21.613Z,2.40
2022-10-04T15:04:13.495Z,7.40
2022-10-04T15:06:56.269Z,1.70
2022-10-04T15:10:09.875Z,12.00
2022-10-04T15:13:16.844Z,3.40
2022-10-04T15:16:10.123Z,2.40
2022-10-04T15:18:52.735Z,4.80
2022-10-04T15:21:53.201Z,6.40
2022-10-04T15:24:54.800Z,11.40
2022-10-04T15:27:47.606Z,1.70
2022-10-04T15:30:34.065Z,7.10
2022-10-04T15:33:18.304Z,5.90
2022-10-04T15:36:02.697Z,2.30
2022-10-04T15:39:01.891Z,2.80
2022-10-04T15:41:43.071Z,1.30
2022-10-04T15:44:32.157Z,3.40
2022-10-04T15:47:07.589Z,3.40
2022-10-04T15:50:23.762Z,3.80
2022-10-04T15:53:19.760Z,17.90
2022-10-04T15:56:14.080Z,3.80
2022-10-04T15:58:56.226Z,4.70
2022-10-04T16:02:16.452Z,2.00
2022-10-04T16:05:15.041Z,5.70
2022-10-04T16:08:02.696Z,5.90
2022-10-04T16:10:52.610Z,10.50
2022-10-04T16:13:59.988Z,3.30
2022-10-04T16:17:02.372Z,16.00
2022-10-04T16:19:59.398Z,10.60
2022-10-04T16:23:21.344Z,9.60
2022-10-04T16:25:51.785Z,8.00
2022-10-04T16:28:59.934Z,14.90
2022-10-04T16:31:53.508Z,5.70
2022-10-04T16:34:48.748Z,6.20
2022-10-04T16:37:26.181Z,5.30
2022-10-04T16:40:19.751Z,4.40
2022-10-04T16:42:56.583Z,3.70
2022-10-04T16:46:01.376Z,15.10
2022-10-04T16:48:58.223Z,8.70
2022-10-04T16:52:03.094Z,13.50
2022-10-04T16:55:01.729Z,8.30
2022-10-04T16:57:31.063Z,9.90
2022-10-04T17:00:20.883Z,9.80
2022-10-04T17:03:29.271Z,10.50
2022-10-04T17:06:24.393Z,15.40
2022-10-04T17:09:23.962Z,28.10
2022-10-04T17:12:11.299Z,27.10
2022-10-04T17:14:39.764Z,30.70
2022-10-04T17:17:47.074Z,31.80
2022-10-04T17:20:27.121Z,44.90
2022-10-04T17:23:32.463Z,34.70
2022-10-04T17:26:38.674Z,43.30
2022-10-04T17:29:26.030Z,42.00
2022-10-04T17:32:17.012Z,45.30
2022-10-04T17:35:27.295Z,53.50
2022-10-04T17:38:09.191Z,53.10
2022-10-04T17:41:16.343Z,47.20
2022-10-04T17:44:23.597Z,40.00
2022-10-04T17:47:23.626Z,39.60
2022-10-04T17:50:29.286Z,52.60
2022-10-04T17:53:42.494Z,37.10
2022-10-04T17:56:14.207Z,34.80
2022-10-04T17:58:55.901Z,47.00
2022-10-04T18:01:36.786Z,41.30
2022-10-04T18:04:30.656Z,33.30
2022-10-04T18:07:32.410Z,32.80
2022-10-04T18:10:38.789Z,36.60
2022-10-04T18:13:25.836Z,41.00
2022-10-04T18:16:11.277Z,36.00
2022-10-04T18:18:42.171Z,51.90
2022-10-04T18:21:31.694Z,37.30
2022-10-04T18:24:17.188Z,38.30
2022-10-04T18:27:24.295Z,30.00
2022-10-04T18:30:00.685Z,31.70
2022-10-04T18:32:29.635Z,33.60
2022-10-04T18:35:18.465Z,34.60
2022-10-04T18:38:27.995Z,39.70
2022-10-04T18:41:23.882Z,34.90
2022-10-04T18:44:15.615Z,33.40
2022-10-04T18:47:00.653Z,28.50
2022-10-04T18:49:33.657Z,29.20
2022-10-04T18:52:22.893Z,35.60
2022-10-04T18:54:51.497Z,26.50
2022-10-04T18:58:01.108Z,31.90
2022-10-04T19:01:12.067Z,29.40
2022-10-04T19:04:00.370Z,42.00
2022-10-04T19:06:37.263Z,30.20
2022-10-04T19:09:16.078Z,39.50
2022-10-04T19:12:11.590Z,40.70
2022-10-04T19:15:29.171Z,33.70
2022-10-04T19:18:28.330Z,40.10
2022-10-04T19:21:33.019Z,47.10
2022-10-04T19:24:26.454Z,32.60
2022-10-04T19:27:19.713Z,40.20
2022-10-04T19:30:12.646Z,44.10
2022-10-04T19:33:31.302Z,46.00
2022-10-04T19:36:15.280Z,47.20
2022-10-04T19:41:55.763Z,40.50
2022-10-04T19:44:31.806Z,40.30
2022-10-04T19:47:52.431Z,35.20
2022-10-04T19:50:47.054Z,42.20
2022-10-04T19:53:41.608Z,43.80
2022-10-04T19:56:24.135Z,47.20
2022-10-04T19:59:12.882Z,42.00
2022-10-04T20:01:41.646Z,37.30
2022-10-04T20:04:36.884Z,36.80
2022-10-04T20:07:24.325Z,35.20
2022-10-04T20:10:30.950Z,45.90
2022-10-04T20:13:25.935Z,35.20
2022-10-04T20:16:00.729Z,46.10
2022-10-04T20:18:32.709Z,44.00
2022-10-04T20:21:01.658Z,39.80
2022-10-04T20:23:47.999Z,44.50
2022-10-04T20:26:43.304Z,33.90
2022-10-04T20:29:38.710Z,34.20
2022-10-04T20:32:27.460Z,30.00
2022-10-04T20:35:00.584Z,32.50
2022-10-04T20:38:13.516Z,34.20
2022-10-04T20:40:45.509Z,35.00
2022-10-04T20:43:28.348Z,33.70
2022-10-04T20:46:23.381Z,30.60
2022-10-04T20:48:54.889Z,29.70
2022-10-04T20:51:37.521Z,25.60
2022-10-04T20:54:09.297Z,29.50
2022-10-04T20:56:39.349Z,21.40
2022-10-04T20:59:22.447Z,31.70
2022-10-04T21:02:06.916Z,28.40
2022-10-04T21:04:43.210Z,29.40
2022-10-04T21:10:18.479Z,30.00
2022-10-04T21:12:49.534Z,24.60
2022-10-04T21:15:31.922Z,28.40
2022-10-04T21:18:04.052Z,34.40
2022-10-04T21:20:52.228Z,27.70
2022-10-04T21:23:30.593Z,34.60
2022-10-04T21:26:22.394Z,25.50
2022-10-04T21:28:57.337Z,27.20
2022-10-04T21:31:39.936Z,36.90
2022-10-04T21:34:48.249Z,32.80
2022-10-04T21:37:11.161Z,30.50
2022-10-04T21:39:39.914Z,26.10
2022-10-04T21:42:22.698Z,28.00
2022-10-04T21:44:51.757Z,33.20
2022-10-04T21:47:23.294Z,21.00
2022-10-04T21:49:52.649Z,30.40
2022-10-04T21:52:34.994Z,32.50
2022-10-04T21:55:17.696Z,25.60
2022-10-04T21:58:00.100Z,24.50
2022-10-04T22:00:29.261Z,18.50
2022-10-04T22:03:11.762Z,22.50
2022-10-04T22:05:40.914Z,20.50
2022-10-04T22:08:09.894Z,24.30
2022-10-04T22:10:40.186Z,28.60
2022-10-04T22:13:09.375Z,31.30
2022-10-04T22:15:51.716Z,22.80
2022-10-04T22:18:34.425Z,38.90
2022-10-04T22:21:03.652Z,22.90
2022-10-04T22:23:39.059Z,34.50
2022-10-04T22:26:23.605Z,28.40
2022-10-04T22:28:55.275Z,26.10
2022-10-04T22:31:29.351Z,27.30
2022-10-04T22:34:21.118Z,31.00
2022-10-04T22:36:52.251Z,32.20
2022-10-04T22:39:21.706Z,26.00
2022-10-04T22:42:00.860Z,25.10
2022-10-04T22:44:35.745Z,32.00
2022-10-04T22:47:10.584Z,28.30
2022-10-04T22:49:44.454Z,22.60
2022-10-04T22:52:20.379Z,27.60
2022-10-04T22:55:03.294Z,26.60
2022-10-04T22:57:46.442Z,20.20
2022-10-04T23:00:15.759Z,33.90
2022-10-04T23:02:44.806Z,29.50
2022-10-04T23:05:19.954Z,25.20
2022-10-04T23:07:49.562Z,22.90
2022-10-04T23:10:20.094Z,27.10
2022-10-04T23:12:49.843Z,26.20
2022-10-04T23:15:32.474Z,22.60
2022-10-04T23:18:01.176Z,30.40
2022-10-04T23:20:45.151Z,28.20
2022-10-04T23:23:18.564Z,34.50
2022-10-04T23:28:43.343Z,25.70
2022-10-04T23:31:18.972Z,33.20
2022-10-04T23:33:47.756Z,25.20
2022-10-04T23:36:30.897Z,23.70
2022-10-04T23:39:01.676Z,25.90
2022-10-04T23:41:44.435Z,26.00
2022-10-04T23:44:34.948Z,30.40
2022-10-04T23:47:21.981Z,24.20
2022-10-04T23:49:53.802Z,21.20
2022-10-04T23:52:35.369Z,31.90
2022-10-04T23:55:17.277Z,31.30
2022-10-04T23:57:47.371Z,29.90
